sensor_id;sensor_type;location;lat;lon;timestamp;P1;durP1;ratioP1;P2;durP2;ratioP2
33836;SDS011;20140;49.356;8.812;2023-02-18T00:00:51;4.65;;;3.08;;
33836;SDS011;20140;49.356;8.812;2023-02-18T00:03:16;5.07;;;3.53;;
33836;SDS011;20140;49.356;8.812;2023-02-18T00:05:42;3.50;;;3.20;;
33836;SDS011;20140;49.356;8.812;2023-02-18T00:08:07;3.72;;;3.08;;
33836;SDS011;20140;49.356;8.812;2023-02-18T00:10:33;2.00;;;1.80;;
33836;SDS011;20140;49.356;8.812;2023-02-18T00:12:58;5.83;;;3.23;;
33836;SDS011;20140;49.356;8.812;2023-02-18T00:15:25;3.40;;;2.80;;
33836;SDS011;20140;49.356;8.812;2023-02-18T00:17:51;5.25;;;2.60;;
33836;SDS011;20140;49.356;8.812;2023-02-18T00:20:16;6.63;;;3.80;;
33836;SDS011;20140;49.356;8.812;2023-02-18T00:22:42;3.23;;;2.73;;
33836;SDS011;20140;49.356;8.812;2023-02-18T00:25:07;4.37;;;3.47;;
33836;SDS011;20140;49.356;8.812;2023-02-18T00:27:33;4.18;;;3.47;;
33836;SDS011;20140;49.356;8.812;2023-02-18T00:29:58;5.00;;;2.80;;
33836;SDS011;20140;49.356;8.812;2023-02-18T00:32:24;4.20;;;3.23;;
33836;SDS011;20140;49.356;8.812;2023-02-18T00:34:49;4.27;;;3.10;;
33836;SDS011;20140;49.356;8.812;2023-02-18T00:37:15;3.85;;;2.70;;
33836;SDS011;20140;49.356;8.812;2023-02-18T00:39:40;4.77;;;2.90;;
33836;SDS011;20140;49.356;8.812;2023-02-18T00:42:06;3.60;;;2.93;;
33836;SDS011;20140;49.356;8.812;2023-02-18T00:44:32;4.65;;;2.95;;
33836;SDS011;20140;49.356;8.812;2023-02-18T00:46:57;3.33;;;3.03;;
33836;SDS011;20140;49.356;8.812;2023-02-18T00:49:23;3.17;;;2.63;;
33836;SDS011;20140;49.356;8.812;2023-02-18T00:51:48;3.57;;;3.00;;
33836;SDS011;20140;49.356;8.812;2023-02-18T00:54:14;3.20;;;2.40;;
33836;SDS011;20140;49.356;8.812;2023-02-18T00:56:39;4.07;;;3.08;;
33836;SDS011;20140;49.356;8.812;2023-02-18T00:59:05;3.50;;;3.17;;
33836;SDS011;20140;49.356;8.812;2023-02-18T01:01:30;3.47;;;3.10;;
33836;SDS011;20140;49.356;8.812;2023-02-18T01:03:56;4.38;;;3.38;;
33836;SDS011;20140;49.356;8.812;2023-02-18T01:06:22;3.92;;;2.88;;
33836;SDS011;20140;49.356;8.812;2023-02-18T01:08:47;3.50;;;3.20;;
33836;SDS011;20140;49.356;8.812;2023-02-18T01:11:13;3.47;;;2.97;;
33836;SDS011;20140;49.356;8.812;2023-02-18T01:13:40;3.47;;;3.03;;
33836;SDS011;20140;49.356;8.812;2023-02-18T01:16:06;4.33;;;2.63;;
33836;SDS011;20140;49.356;8.812;2023-02-18T01:18:32;4.97;;;3.40;;
33836;SDS011;20140;49.356;8.812;2023-02-18T01:20:58;3.20;;;2.60;;
33836;SDS011;20140;49.356;8.812;2023-02-18T01:23:24;2.83;;;2.33;;
33836;SDS011;20140;49.356;8.812;2023-02-18T01:25:49;4.90;;;3.17;;
33836;SDS011;20140;49.356;8.812;2023-02-18T01:28:15;4.50;;;3.07;;
33836;SDS011;20140;49.356;8.812;2023-02-18T01:30:41;3.58;;;3.25;;
33836;SDS011;20140;49.356;8.812;2023-02-18T01:33:07;4.00;;;3.37;;
33836;SDS011;20140;49.356;8.812;2023-02-18T01:35:36;3.88;;;3.47;;
33836;SDS011;20140;49.356;8.812;2023-02-18T01:38:02;6.45;;;3.40;;
33836;SDS011;20140;49.356;8.812;2023-02-18T01:40:28;4.03;;;3.40;;
33836;SDS011;20140;49.356;8.812;2023-02-18T01:42:54;3.53;;;3.22;;
33836;SDS011;20140;49.356;8.812;2023-02-18T01:48:01;4.38;;;3.03;;
33836;SDS011;20140;49.356;8.812;2023-02-18T01:50:38;2.87;;;2.67;;
33836;SDS011;20140;49.356;8.812;2023-02-18T01:53:08;4.45;;;3.38;;
33836;SDS011;20140;49.356;8.812;2023-02-18T01:55:34;3.83;;;3.50;;
33836;SDS011;20140;49.356;8.812;2023-02-18T01:58:00;3.97;;;3.55;;
33836;SDS011;20140;49.356;8.812;2023-02-18T02:00:27;4.55;;;3.38;;
33836;SDS011;20140;49.356;8.812;2023-02-18T02:02:53;2.60;;;2.38;;
33836;SDS011;20140;49.356;8.812;2023-02-18T02:05:19;4.53;;;3.63;;
33836;SDS011;20140;49.356;8.812;2023-02-18T02:07:46;5.10;;;4.07;;
33836;SDS011;20140;49.356;8.812;2023-02-18T02:10:14;4.00;;;3.47;;
33836;SDS011;20140;49.356;8.812;2023-02-18T02:12:54;3.88;;;3.45;;
33836;SDS011;20140;49.356;8.812;2023-02-18T02:15:44;4.38;;;3.42;;
33836;SDS011;20140;49.356;8.812;2023-02-18T02:21:12;4.95;;;3.83;;
33836;SDS011;20140;49.356;8.812;2023-02-18T02:37:39;4.38;;;3.75;;
33836;SDS011;20140;49.356;8.812;2023-02-18T02:46:05;3.53;;;3.22;;
33836;SDS011;20140;49.356;8.812;2023-02-18T02:48:48;4.07;;;3.20;;
33836;SDS011;20140;49.356;8.812;2023-02-18T02:54:16;4.78;;;3.60;;
33836;SDS011;20140;49.356;8.812;2023-02-18T02:56:45;4.00;;;3.60;;
33836;SDS011;20140;49.356;8.812;2023-02-18T02:59:12;4.43;;;3.80;;
33836;SDS011;20140;49.356;8.812;2023-02-18T03:02:07;4.40;;;4.00;;
33836;SDS011;20140;49.356;8.812;2023-02-18T03:04:58;4.88;;;3.95;;
33836;SDS011;20140;49.356;8.812;2023-02-18T03:07:31;3.72;;;3.17;;
33836;SDS011;20140;49.356;8.812;2023-02-18T03:13:22;4.75;;;4.03;;
33836;SDS011;20140;49.356;8.812;2023-02-18T03:16:02;5.22;;;4.30;;
33836;SDS011;20140;49.356;8.812;2023-02-18T03:18:50;7.47;;;4.25;;
33836;SDS011;20140;49.356;8.812;2023-02-18T03:24:26;4.60;;;4.20;;
33836;SDS011;20140;49.356;8.812;2023-02-18T03:26:59;4.68;;;3.97;;
33836;SDS011;20140;49.356;8.812;2023-02-18T03:29:35;5.65;;;4.18;;
33836;SDS011;20140;49.356;8.812;2023-02-18T03:32:03;3.95;;;3.35;;
33836;SDS011;20140;49.356;8.812;2023-02-18T03:34:33;4.70;;;4.22;;
33836;SDS011;20140;49.356;8.812;2023-02-18T03:37:02;5.60;;;4.40;;
33836;SDS011;20140;49.356;8.812;2023-02-18T03:39:31;4.65;;;4.18;;
33836;SDS011;20140;49.356;8.812;2023-02-18T03:41:58;5.03;;;4.53;;
33836;SDS011;20140;49.356;8.812;2023-02-18T03:44:24;4.17;;;3.60;;
33836;SDS011;20140;49.356;8.812;2023-02-18T03:46:50;5.40;;;4.30;;
33836;SDS011;20140;49.356;8.812;2023-02-18T03:49:16;7.85;;;4.72;;
33836;SDS011;20140;49.356;8.812;2023-02-18T03:51:42;5.90;;;5.03;;
33836;SDS011;20140;49.356;8.812;2023-02-18T03:54:08;4.63;;;4.18;;
33836;SDS011;20140;49.356;8.812;2023-02-18T03:56:35;5.85;;;4.53;;
33836;SDS011;20140;49.356;8.812;2023-02-18T03:59:02;6.00;;;4.93;;
33836;SDS011;20140;49.356;8.812;2023-02-18T04:01:28;5.60;;;4.85;;
33836;SDS011;20140;49.356;8.812;2023-02-18T04:03:53;6.03;;;5.05;;
33836;SDS011;20140;49.356;8.812;2023-02-18T04:06:19;6.33;;;5.00;;
33836;SDS011;20140;49.356;8.812;2023-02-18T04:08:46;6.57;;;4.70;;
33836;SDS011;20140;49.356;8.812;2023-02-18T04:11:12;5.90;;;5.30;;
33836;SDS011;20140;49.356;8.812;2023-02-18T04:13:37;8.05;;;4.50;;
33836;SDS011;20140;49.356;8.812;2023-02-18T04:16:03;5.97;;;5.10;;
33836;SDS011;20140;49.356;8.812;2023-02-18T04:18:29;7.33;;;4.70;;
33836;SDS011;20140;49.356;8.812;2023-02-18T04:20:55;5.63;;;4.90;;
33836;SDS011;20140;49.356;8.812;2023-02-18T04:23:20;7.23;;;5.10;;
33836;SDS011;20140;49.356;8.812;2023-02-18T04:25:46;6.30;;;5.18;;
33836;SDS011;20140;49.356;8.812;2023-02-18T04:28:12;5.20;;;4.70;;
33836;SDS011;20140;49.356;8.812;2023-02-18T04:30:39;5.70;;;5.07;;
33836;SDS011;20140;49.356;8.812;2023-02-18T04:33:05;5.37;;;4.60;;
33836;SDS011;20140;49.356;8.812;2023-02-18T04:35:30;6.07;;;5.27;;
33836;SDS011;20140;49.356;8.812;2023-02-18T04:37:56;6.30;;;5.10;;
33836;SDS011;20140;49.356;8.812;2023-02-18T04:40:21;5.27;;;4.77;;
33836;SDS011;20140;49.356;8.812;2023-02-18T04:42:49;6.68;;;5.97;;
33836;SDS011;20140;49.356;8.812;2023-02-18T04:45:14;6.57;;;5.40;;
33836;SDS011;20140;49.356;8.812;2023-02-18T04:47:40;5.95;;;5.18;;
33836;SDS011;20140;49.356;8.812;2023-02-18T04:50:06;6.00;;;5.25;;
33836;SDS011;20140;49.356;8.812;2023-02-18T04:52:32;7.07;;;6.28;;
33836;SDS011;20140;49.356;8.812;2023-02-18T04:54:58;5.83;;;4.87;;
33836;SDS011;20140;49.356;8.812;2023-02-18T04:57:23;7.25;;;5.55;;
33836;SDS011;20140;49.356;8.812;2023-02-18T04:59:49;7.03;;;5.70;;
33836;SDS011;20140;49.356;8.812;2023-02-18T05:02:14;6.00;;;5.40;;
33836;SDS011;20140;49.356;8.812;2023-02-18T05:04:40;5.93;;;4.60;;
33836;SDS011;20140;49.356;8.812;2023-02-18T05:07:05;6.32;;;5.68;;
33836;SDS011;20140;49.356;8.812;2023-02-18T05:09:31;5.73;;;5.23;;
33836;SDS011;20140;49.356;8.812;2023-02-18T05:11:56;6.60;;;5.47;;
33836;SDS011;20140;49.356;8.812;2023-02-18T05:14:22;6.10;;;5.50;;
33836;SDS011;20140;49.356;8.812;2023-02-18T05:16:47;5.93;;;5.33;;
33836;SDS011;20140;49.356;8.812;2023-02-18T05:19:13;7.50;;;5.17;;
33836;SDS011;20140;49.356;8.812;2023-02-18T05:21:39;6.35;;;5.65;;
33836;SDS011;20140;49.356;8.812;2023-02-18T05:24:05;6.13;;;5.53;;
33836;SDS011;20140;49.356;8.812;2023-02-18T05:26:30;7.40;;;4.83;;
33836;SDS011;20140;49.356;8.812;2023-02-18T05:28:56;5.30;;;4.80;;
33836;SDS011;20140;49.356;8.812;2023-02-18T05:31:22;7.32;;;4.97;;
33836;SDS011;20140;49.356;8.812;2023-02-18T05:33:47;6.40;;;5.40;;
33836;SDS011;20140;49.356;8.812;2023-02-18T05:36:13;5.63;;;5.03;;
33836;SDS011;20140;49.356;8.812;2023-02-18T05:38:38;6.13;;;5.27;;
33836;SDS011;20140;49.356;8.812;2023-02-18T05:41:04;9.27;;;6.27;;
33836;SDS011;20140;49.356;8.812;2023-02-18T05:43:29;7.30;;;5.93;;
33836;SDS011;20140;49.356;8.812;2023-02-18T05:45:55;6.23;;;5.63;;
33836;SDS011;20140;49.356;8.812;2023-02-18T05:48:20;6.07;;;5.47;;
33836;SDS011;20140;49.356;8.812;2023-02-18T05:50:46;6.20;;;5.55;;
33836;SDS011;20140;49.356;8.812;2023-02-18T05:53:11;7.83;;;5.37;;
33836;SDS011;20140;49.356;8.812;2023-02-18T05:55:37;7.27;;;6.07;;
33836;SDS011;20140;49.356;8.812;2023-02-18T05:58:03;6.03;;;5.43;;
33836;SDS011;20140;49.356;8.812;2023-02-18T06:00:29;6.53;;;4.97;;
33836;SDS011;20140;49.356;8.812;2023-02-18T06:02:55;5.70;;;4.93;;
33836;SDS011;20140;49.356;8.812;2023-02-18T06:05:21;5.38;;;4.88;;
33836;SDS011;20140;49.356;8.812;2023-02-18T06:07:47;5.33;;;4.80;;
33836;SDS011;20140;49.356;8.812;2023-02-18T06:10:13;6.87;;;4.73;;
33836;SDS011;20140;49.356;8.812;2023-02-18T06:12:38;7.18;;;5.82;;
33836;SDS011;20140;49.356;8.812;2023-02-18T06:15:04;6.80;;;5.30;;
33836;SDS011;20140;49.356;8.812;2023-02-18T06:17:30;6.68;;;4.93;;
33836;SDS011;20140;49.356;8.812;2023-02-18T06:19:55;7.03;;;4.97;;
33836;SDS011;20140;49.356;8.812;2023-02-18T06:22:21;5.33;;;4.83;;
33836;SDS011;20140;49.356;8.812;2023-02-18T06:24:46;5.97;;;5.23;;
33836;SDS011;20140;49.356;8.812;2023-02-18T06:27:12;6.00;;;4.68;;
33836;SDS011;20140;49.356;8.812;2023-02-18T06:29:37;5.88;;;4.50;;
33836;SDS011;20140;49.356;8.812;2023-02-18T06:32:03;6.50;;;5.03;;
33836;SDS011;20140;49.356;8.812;2023-02-18T06:34:29;7.30;;;4.87;;
33836;SDS011;20140;49.356;8.812;2023-02-18T06:36:55;5.90;;;5.30;;
33836;SDS011;20140;49.356;8.812;2023-02-18T06:39:20;5.70;;;4.83;;
33836;SDS011;20140;49.356;8.812;2023-02-18T06:41:46;6.18;;;5.07;;
33836;SDS011;20140;49.356;8.812;2023-02-18T06:44:11;5.43;;;4.70;;
33836;SDS011;20140;49.356;8.812;2023-02-18T06:46:39;4.90;;;4.27;;
33836;SDS011;20140;49.356;8.812;2023-02-18T06:49:04;5.67;;;5.00;;
33836;SDS011;20140;49.356;8.812;2023-02-18T06:51:30;6.47;;;5.15;;
33836;SDS011;20140;49.356;8.812;2023-02-18T06:53:55;7.22;;;5.05;;
33836;SDS011;20140;49.356;8.812;2023-02-18T06:56:21;5.30;;;4.53;;
33836;SDS011;20140;49.356;8.812;2023-02-18T06:58:46;6.17;;;4.93;;
33836;SDS011;20140;49.356;8.812;2023-02-18T07:01:12;6.13;;;4.40;;
33836;SDS011;20140;49.356;8.812;2023-02-18T07:03:37;5.57;;;4.27;;
33836;SDS011;20140;49.356;8.812;2023-02-18T07:06:03;5.20;;;4.53;;
33836;SDS011;20140;49.356;8.812;2023-02-18T07:08:29;6.95;;;5.07;;
33836;SDS011;20140;49.356;8.812;2023-02-18T07:10:56;5.57;;;4.80;;
33836;SDS011;20140;49.356;8.812;2023-02-18T07:13:22;5.63;;;4.80;;
33836;SDS011;20140;49.356;8.812;2023-02-18T07:15:48;6.27;;;5.67;;
33836;SDS011;20140;49.356;8.812;2023-02-18T07:18:13;5.07;;;4.57;;
33836;SDS011;20140;49.356;8.812;2023-02-18T07:20:39;5.80;;;4.72;;
33836;SDS011;20140;49.356;8.812;2023-02-18T07:23:04;6.38;;;4.97;;
33836;SDS011;20140;49.356;8.812;2023-02-18T07:25:30;5.90;;;4.10;;
33836;SDS011;20140;49.356;8.812;2023-02-18T07:27:55;6.57;;;4.63;;
33836;SDS011;20140;49.356;8.812;2023-02-18T07:30:21;6.20;;;4.57;;
33836;SDS011;20140;49.356;8.812;2023-02-18T07:32:46;5.32;;;4.30;;
33836;SDS011;20140;49.356;8.812;2023-02-18T07:35:13;5.53;;;4.20;;
33836;SDS011;20140;49.356;8.812;2023-02-18T07:37:42;4.57;;;4.05;;
33836;SDS011;20140;49.356;8.812;2023-02-18T07:40:09;5.15;;;4.47;;
33836;SDS011;20140;49.356;8.812;2023-02-18T07:42:36;5.20;;;4.05;;
33836;SDS011;20140;49.356;8.812;2023-02-18T07:45:02;4.28;;;3.83;;
33836;SDS011;20140;49.356;8.812;2023-02-18T07:47:27;4.13;;;3.70;;
33836;SDS011;20140;49.356;8.812;2023-02-18T07:49:53;5.47;;;4.00;;
33836;SDS011;20140;49.356;8.812;2023-02-18T07:52:18;5.00;;;3.93;;
33836;SDS011;20140;49.356;8.812;2023-02-18T07:54:44;5.40;;;3.88;;
33836;SDS011;20140;49.356;8.812;2023-02-18T07:57:09;4.13;;;3.73;;
33836;SDS011;20140;49.356;8.812;2023-02-18T07:59:35;3.83;;;3.03;;
33836;SDS011;20140;49.356;8.812;2023-02-18T08:02:00;4.07;;;3.65;;
33836;SDS011;20140;49.356;8.812;2023-02-18T08:04:26;3.95;;;2.92;;
33836;SDS011;20140;49.356;8.812;2023-02-18T08:06:51;4.30;;;3.55;;
33836;SDS011;20140;49.356;8.812;2023-02-18T08:09:17;3.87;;;3.10;;
33836;SDS011;20140;49.356;8.812;2023-02-18T08:11:43;3.17;;;2.87;;
33836;SDS011;20140;49.356;8.812;2023-02-18T08:14:09;3.20;;;2.90;;
33836;SDS011;20140;49.356;8.812;2023-02-18T08:16:34;5.45;;;3.60;;
33836;SDS011;20140;49.356;8.812;2023-02-18T08:19:00;4.90;;;3.67;;
33836;SDS011;20140;49.356;8.812;2023-02-18T08:21:27;3.58;;;2.90;;
33836;SDS011;20140;49.356;8.812;2023-02-18T08:23:52;3.85;;;3.15;;
33836;SDS011;20140;49.356;8.812;2023-02-18T08:26:18;3.28;;;2.97;;
33836;SDS011;20140;49.356;8.812;2023-02-18T08:28:45;5.50;;;3.50;;
33836;SDS011;20140;49.356;8.812;2023-02-18T08:31:15;3.17;;;2.85;;
33836;SDS011;20140;49.356;8.812;2023-02-18T08:33:42;4.90;;;2.72;;
33836;SDS011;20140;49.356;8.812;2023-02-18T08:36:08;4.10;;;3.47;;
33836;SDS011;20140;49.356;8.812;2023-02-18T08:38:34;4.53;;;2.90;;
33836;SDS011;20140;49.356;8.812;2023-02-18T08:41:02;3.83;;;3.53;;
33836;SDS011;20140;49.356;8.812;2023-02-18T08:43:29;3.80;;;2.85;;
33836;SDS011;20140;49.356;8.812;2023-02-18T08:45:55;3.53;;;3.23;;
33836;SDS011;20140;49.356;8.812;2023-02-18T08:48:22;5.60;;;2.97;;
33836;SDS011;20140;49.356;8.812;2023-02-18T08:50:47;5.47;;;3.10;;
33836;SDS011;20140;49.356;8.812;2023-02-18T08:53:13;4.03;;;2.57;;
33836;SDS011;20140;49.356;8.812;2023-02-18T08:55:39;4.70;;;2.90;;
33836;SDS011;20140;49.356;8.812;2023-02-18T08:58:05;4.78;;;3.10;;
33836;SDS011;20140;49.356;8.812;2023-02-18T09:00:30;4.57;;;4.13;;
33836;SDS011;20140;49.356;8.812;2023-02-18T09:02:56;3.23;;;2.53;;
33836;SDS011;20140;49.356;8.812;2023-02-18T09:05:22;3.30;;;3.00;;
33836;SDS011;20140;49.356;8.812;2023-02-18T09:07:47;4.03;;;3.10;;
33836;SDS011;20140;49.356;8.812;2023-02-18T09:10:12;5.53;;;3.40;;
33836;SDS011;20140;49.356;8.812;2023-02-18T09:12:38;5.67;;;4.13;;
33836;SDS011;20140;49.356;8.812;2023-02-18T09:15:04;4.10;;;3.67;;
33836;SDS011;20140;49.356;8.812;2023-02-18T09:17:30;4.03;;;3.15;;
33836;SDS011;20140;49.356;8.812;2023-02-18T09:19:55;5.30;;;3.28;;
33836;SDS011;20140;49.356;8.812;2023-02-18T09:22:21;6.18;;;3.45;;
33836;SDS011;20140;49.356;8.812;2023-02-18T09:24:46;4.53;;;3.40;;
33836;SDS011;20140;49.356;8.812;2023-02-18T09:27:12;4.23;;;3.20;;
33836;SDS011;20140;49.356;8.812;2023-02-18T09:29:38;4.13;;;3.58;;
33836;SDS011;20140;49.356;8.812;2023-02-18T09:32:05;4.15;;;3.60;;
33836;SDS011;20140;49.356;8.812;2023-02-18T09:34:31;4.38;;;3.97;;
33836;SDS011;20140;49.356;8.812;2023-02-18T09:36:58;3.72;;;3.35;;
33836;SDS011;20140;49.356;8.812;2023-02-18T09:39:24;5.35;;;3.72;;
33836;SDS011;20140;49.356;8.812;2023-02-18T09:42:06;4.37;;;3.77;;
33836;SDS011;20140;49.356;8.812;2023-02-18T09:44:39;4.20;;;2.95;;
33836;SDS011;20140;49.356;8.812;2023-02-18T09:47:40;3.60;;;2.92;;
33836;SDS011;20140;49.356;8.812;2023-02-18T09:50:14;5.28;;;3.90;;
33836;SDS011;20140;49.356;8.812;2023-02-18T09:52:45;4.82;;;3.05;;
33836;SDS011;20140;49.356;8.812;2023-02-18T09:58:01;3.95;;;3.22;;
33836;SDS011;20140;49.356;8.812;2023-02-18T10:00:30;4.13;;;3.28;;
33836;SDS011;20140;49.356;8.812;2023-02-18T10:03:21;4.30;;;3.67;;
33836;SDS011;20140;49.356;8.812;2023-02-18T10:05:58;3.70;;;3.30;;
33836;SDS011;20140;49.356;8.812;2023-02-18T10:08:29;4.70;;;3.70;;
33836;SDS011;20140;49.356;8.812;2023-02-18T10:11:04;4.97;;;3.28;;
33836;SDS011;20140;49.356;8.812;2023-02-18T10:13:40;4.95;;;3.75;;
33836;SDS011;20140;49.356;8.812;2023-02-18T10:16:07;3.87;;;3.00;;
33836;SDS011;20140;49.356;8.812;2023-02-18T10:18:35;5.85;;;3.10;;
33836;SDS011;20140;49.356;8.812;2023-02-18T10:23:35;4.47;;;3.15;;
33836;SDS011;20140;49.356;8.812;2023-02-18T10:26:05;3.50;;;3.20;;
33836;SDS011;20140;49.356;8.812;2023-02-18T10:28:36;4.30;;;2.78;;
33836;SDS011;20140;49.356;8.812;2023-02-18T10:31:04;3.85;;;3.42;;
33836;SDS011;20140;49.356;8.812;2023-02-18T10:36:23;3.88;;;3.17;;
33836;SDS011;20140;49.356;8.812;2023-02-18T10:39:13;3.87;;;3.23;;
33836;SDS011;20140;49.356;8.812;2023-02-18T10:41:53;4.90;;;3.30;;
33836;SDS011;20140;49.356;8.812;2023-02-18T10:47:22;5.13;;;2.72;;
33836;SDS011;20140;49.356;8.812;2023-02-18T10:52:34;3.28;;;2.75;;
33836;SDS011;20140;49.356;8.812;2023-02-18T10:55:15;3.77;;;3.00;;
33836;SDS011;20140;49.356;8.812;2023-02-18T10:57:50;4.75;;;3.17;;
33836;SDS011;20140;49.356;8.812;2023-02-18T11:00:21;4.47;;;3.03;;
33836;SDS011;20140;49.356;8.812;2023-02-18T11:05:49;3.33;;;2.92;;
33836;SDS011;20140;49.356;8.812;2023-02-18T11:08:25;4.45;;;2.28;;
33836;SDS011;20140;49.356;8.812;2023-02-18T11:10:52;4.18;;;2.38;;
33836;SDS011;20140;49.356;8.812;2023-02-18T11:13:29;3.10;;;2.58;;
33836;SDS011;20140;49.356;8.812;2023-02-18T11:21:04;2.50;;;1.83;;
33836;SDS011;20140;49.356;8.812;2023-02-18T11:23:51;2.38;;;2.05;;
33836;SDS011;20140;49.356;8.812;2023-02-18T11:26:21;3.85;;;1.90;;
33836;SDS011;20140;49.356;8.812;2023-02-18T11:28:55;2.58;;;2.13;;
33836;SDS011;20140;49.356;8.812;2023-02-18T11:31:25;2.95;;;2.10;;
33836;SDS011;20140;49.356;8.812;2023-02-18T11:33:56;2.80;;;2.15;;
33836;SDS011;20140;49.356;8.812;2023-02-18T11:36:28;3.70;;;2.25;;
33836;SDS011;20140;49.356;8.812;2023-02-18T11:39:00;4.63;;;2.40;;
33836;SDS011;20140;49.356;8.812;2023-02-18T11:41:39;2.65;;;2.35;;
33836;SDS011;20140;49.356;8.812;2023-02-18T11:44:15;2.40;;;2.20;;
33836;SDS011;20140;49.356;8.812;2023-02-18T11:49:22;5.80;;;5.20;;
33836;SDS011;20140;49.356;8.812;2023-02-18T11:51:49;4.55;;;3.75;;
33836;SDS011;20140;49.356;8.812;2023-02-18T11:54:22;4.97;;;3.70;;
33836;SDS011;20140;49.356;8.812;2023-02-18T11:57:00;6.10;;;5.07;;
33836;SDS011;20140;49.356;8.812;2023-02-18T11:59:29;6.00;;;5.07;;
33836;SDS011;20140;49.356;8.812;2023-02-18T12:10:13;7.93;;;6.55;;
33836;SDS011;20140;49.356;8.812;2023-02-18T12:12:59;7.38;;;6.30;;
33836;SDS011;20140;49.356;8.812;2023-02-18T12:15:51;6.75;;;5.43;;
33836;SDS011;20140;49.356;8.812;2023-02-18T12:18:39;7.13;;;6.45;;
33836;SDS011;20140;49.356;8.812;2023-02-18T12:23:55;6.68;;;5.15;;
33836;SDS011;20140;49.356;8.812;2023-02-18T12:26:37;7.55;;;6.47;;
33836;SDS011;20140;49.356;8.812;2023-02-18T12:29:21;5.25;;;4.75;;
33836;SDS011;20140;49.356;8.812;2023-02-18T12:32:17;8.07;;;6.28;;
33836;SDS011;20140;49.356;8.812;2023-02-18T12:51:18;4.40;;;3.75;;
33836;SDS011;20140;49.356;8.812;2023-02-18T13:04:18;5.43;;;4.63;;
33836;SDS011;20140;49.356;8.812;2023-02-18T13:15:21;4.53;;;3.33;;
33836;SDS011;20140;49.356;8.812;2023-02-18T13:17:59;4.90;;;4.40;;
33836;SDS011;20140;49.356;8.812;2023-02-18T13:20:34;4.97;;;3.80;;
33836;SDS011;20140;49.356;8.812;2023-02-18T13:23:04;4.32;;;3.00;;
33836;SDS011;20140;49.356;8.812;2023-02-18T13:25:33;4.30;;;3.55;;
33836;SDS011;20140;49.356;8.812;2023-02-18T13:30:48;4.28;;;3.88;;
33836;SDS011;20140;49.356;8.812;2023-02-18T13:39:21;4.72;;;3.70;;
33836;SDS011;20140;49.356;8.812;2023-02-18T13:41:49;3.78;;;3.25;;
33836;SDS011;20140;49.356;8.812;2023-02-18T13:46:53;4.07;;;3.08;;
33836;SDS011;20140;49.356;8.812;2023-02-18T13:49:21;3.43;;;2.83;;
33836;SDS011;20140;49.356;8.812;2023-02-18T13:51:49;3.17;;;2.63;;
33836;SDS011;20140;49.356;8.812;2023-02-18T13:54:26;3.85;;;2.92;;
33836;SDS011;20140;49.356;8.812;2023-02-18T13:57:01;3.58;;;2.97;;
33836;SDS011;20140;49.356;8.812;2023-02-18T13:59:31;3.42;;;2.97;;
33836;SDS011;20140;49.356;8.812;2023-02-18T14:02:28;4.07;;;3.30;;
33836;SDS011;20140;49.356;8.812;2023-02-18T14:10:03;3.97;;;2.85;;
33836;SDS011;20140;49.356;8.812;2023-02-18T14:18:09;5.00;;;4.07;;
33836;SDS011;20140;49.356;8.812;2023-02-18T14:31:23;5.65;;;3.70;;
33836;SDS011;20140;49.356;8.812;2023-02-18T14:36:26;3.75;;;2.95;;
33836;SDS011;20140;49.356;8.812;2023-02-18T14:42:23;5.80;;;4.20;;
33836;SDS011;20140;49.356;8.812;2023-02-18T14:48:21;5.95;;;4.00;;
33836;SDS011;20140;49.356;8.812;2023-02-18T14:51:02;4.97;;;3.47;;
33836;SDS011;20140;49.356;8.812;2023-02-18T14:53:29;5.07;;;3.80;;
33836;SDS011;20140;49.356;8.812;2023-02-18T14:55:58;5.53;;;3.63;;
33836;SDS011;20140;49.356;8.812;2023-02-18T14:58:29;9.73;;;5.10;;
33836;SDS011;20140;49.356;8.812;2023-02-18T15:03:40;6.78;;;5.88;;
33836;SDS011;20140;49.356;8.812;2023-02-18T15:06:20;4.03;;;3.63;;
33836;SDS011;20140;49.356;8.812;2023-02-18T15:08:47;4.70;;;4.05;;
33836;SDS011;20140;49.356;8.812;2023-02-18T15:11:12;4.67;;;3.50;;
33836;SDS011;20140;49.356;8.812;2023-02-18T15:13:42;5.20;;;4.35;;
33836;SDS011;20140;49.356;8.812;2023-02-18T15:16:23;4.32;;;3.42;;
33836;SDS011;20140;49.356;8.812;2023-02-18T15:18:57;4.50;;;3.28;;
33836;SDS011;20140;49.356;8.812;2023-02-18T15:21:34;3.22;;;2.85;;
33836;SDS011;20140;49.356;8.812;2023-02-18T15:24:07;6.43;;;4.43;;
33836;SDS011;20140;49.356;8.812;2023-02-18T15:26:42;4.38;;;3.65;;
33836;SDS011;20140;49.356;8.812;2023-02-18T15:29:23;4.75;;;3.83;;
33836;SDS011;20140;49.356;8.812;2023-02-18T15:31:50;5.53;;;3.97;;
33836;SDS011;20140;49.356;8.812;2023-02-18T15:34:34;4.57;;;3.97;;
33836;SDS011;20140;49.356;8.812;2023-02-18T15:37:02;5.13;;;3.55;;
33836;SDS011;20140;49.356;8.812;2023-02-18T15:39:30;4.80;;;4.10;;
33836;SDS011;20140;49.356;8.812;2023-02-18T15:42:01;4.53;;;3.47;;
33836;SDS011;20140;49.356;8.812;2023-02-18T15:44:32;4.47;;;4.00;;
33836;SDS011;20140;49.356;8.812;2023-02-18T15:47:00;3.92;;;3.13;;
33836;SDS011;20140;49.356;8.812;2023-02-18T15:49:28;4.80;;;4.25;;
33836;SDS011;20140;49.356;8.812;2023-02-18T15:51:55;6.10;;;4.97;;
33836;SDS011;20140;49.356;8.812;2023-02-18T15:54:23;4.18;;;3.47;;
33836;SDS011;20140;49.356;8.812;2023-02-18T15:56:50;3.97;;;3.47;;
33836;SDS011;20140;49.356;8.812;2023-02-18T15:59:19;3.97;;;3.50;;
33836;SDS011;20140;49.356;8.812;2023-02-18T16:01:50;4.78;;;3.78;;
33836;SDS011;20140;49.356;8.812;2023-02-18T16:04:23;4.93;;;4.50;;
33836;SDS011;20140;49.356;8.812;2023-02-18T16:06:53;3.33;;;2.50;;
33836;SDS011;20140;49.356;8.812;2023-02-18T16:09:33;4.83;;;3.70;;
33836;SDS011;20140;49.356;8.812;2023-02-18T16:12:02;5.20;;;4.33;;
33836;SDS011;20140;49.356;8.812;2023-02-18T16:14:34;4.17;;;3.00;;
33836;SDS011;20140;49.356;8.812;2023-02-18T16:17:17;4.53;;;4.13;;
33836;SDS011;20140;49.356;8.812;2023-02-18T16:20:02;12.05;;;4.18;;
33836;SDS011;20140;49.356;8.812;2023-02-18T16:23:08;6.70;;;4.30;;
33836;SDS011;20140;49.356;8.812;2023-02-18T16:25:48;7.20;;;4.37;;
33836;SDS011;20140;49.356;8.812;2023-02-18T16:28:24;4.93;;;4.07;;
33836;SDS011;20140;49.356;8.812;2023-02-18T16:30:55;5.95;;;4.55;;
33836;SDS011;20140;49.356;8.812;2023-02-18T16:33:21;6.32;;;4.82;;
33836;SDS011;20140;49.356;8.812;2023-02-18T16:35:46;6.47;;;4.77;;
33836;SDS011;20140;49.356;8.812;2023-02-18T16:38:19;5.50;;;4.27;;
33836;SDS011;20140;49.356;8.812;2023-02-18T16:40:46;5.70;;;4.95;;
33836;SDS011;20140;49.356;8.812;2023-02-18T16:43:13;4.85;;;3.47;;
33836;SDS011;20140;49.356;8.812;2023-02-18T16:45:40;8.60;;;4.43;;
33836;SDS011;20140;49.356;8.812;2023-02-18T16:48:15;5.97;;;3.40;;
33836;SDS011;20140;49.356;8.812;2023-02-18T16:50:41;5.65;;;3.53;;
33836;SDS011;20140;49.356;8.812;2023-02-18T16:53:08;7.47;;;5.10;;
33836;SDS011;20140;49.356;8.812;2023-02-18T16:55:35;3.73;;;3.43;;
33836;SDS011;20140;49.356;8.812;2023-02-18T16:58:01;5.30;;;4.57;;
33836;SDS011;20140;49.356;8.812;2023-02-18T17:00:26;4.83;;;3.20;;
33836;SDS011;20140;49.356;8.812;2023-02-18T17:02:53;5.97;;;4.97;;
33836;SDS011;20140;49.356;8.812;2023-02-18T17:05:21;6.17;;;5.43;;
33836;SDS011;20140;49.356;8.812;2023-02-18T17:07:49;7.20;;;5.68;;
33836;SDS011;20140;49.356;8.812;2023-02-18T17:10:14;5.07;;;4.57;;
33836;SDS011;20140;49.356;8.812;2023-02-18T17:12:41;5.72;;;4.70;;
33836;SDS011;20140;49.356;8.812;2023-02-18T17:17:44;6.95;;;5.20;;
33836;SDS011;20140;49.356;8.812;2023-02-18T17:20:09;5.83;;;5.17;;
33836;SDS011;20140;49.356;8.812;2023-02-18T17:22:38;5.65;;;4.05;;
33836;SDS011;20140;49.356;8.812;2023-02-18T17:25:08;6.13;;;4.43;;
33836;SDS011;20140;49.356;8.812;2023-02-18T17:27:38;7.43;;;4.80;;
33836;SDS011;20140;49.356;8.812;2023-02-18T17:30:03;5.83;;;5.10;;
33836;SDS011;20140;49.356;8.812;2023-02-18T17:32:29;4.60;;;4.10;;